createdAt,value
2018-09-06T00:00:37.200Z,78.83
2018-09-06T00:05:31.721Z,79.04
2018-09-06T00:10:26.180Z,78.68
2018-09-06T00:15:20.624Z,78.52
2018-09-06T00:20:15.060Z,78.62
2018-09-06T00:41:23.730Z,80.32
2018-09-06T00:46:18.139Z,80.82
2018-09-06T00:51:12.620Z,80.88
2018-09-06T00:56:07.080Z,80.82
2018-09-06T01:01:01.545Z,81.10
2018-09-06T01:05:56.012Z,81.76
2018-09-06T01:10:50.519Z,81.73
2018-09-06T01:15:44.924Z,82.87
2018-09-06T01:36:53.251Z,82.34
2018-09-06T01:41:47.692Z,82.61
2018-09-06T01:46:42.121Z,83.57
2018-09-06T01:51:36.707Z,83.62
2018-09-06T01:56:31.784Z,84.34
2018-09-06T02:01:26.270Z,83.61
2018-09-06T02:06:20.740Z,84.10
2018-09-06T02:11:15.224Z,84.71
2018-09-06T02:32:24.206Z,84.47
2018-09-06T02:37:18.649Z,84.91
2018-09-06T02:42:13.159Z,85.03
2018-09-06T02:47:07.601Z,85.40
2018-09-06T02:52:02.035Z,86.35
2018-09-06T02:56:56.488Z,85.72
2018-09-06T03:01:50.952Z,86.37
2018-09-06T03:06:45.470Z,85.97
2018-09-06T03:27:54.132Z,86.04
2018-09-06T03:32:48.564Z,85.71
2018-09-06T03:37:43.039Z,85.47
2018-09-06T03:42:37.476Z,86.94
2018-09-06T03:47:31.968Z,87.33
2018-09-06T03:52:26.476Z,87.03
2018-09-06T03:57:20.920Z,86.86
2018-09-06T04:02:15.397Z,86.84
2018-09-06T04:23:24.511Z,87.92
2018-09-06T04:28:19.068Z,87.22
2018-09-06T04:33:13.527Z,87.26
2018-09-06T04:38:08.011Z,87.36
2018-09-06T04:43:02.488Z,87.68
2018-09-06T04:47:57.008Z,87.76
2018-09-06T04:52:51.529Z,87.59
2018-09-06T04:57:46.004Z,87.03
2018-09-06T05:18:55.448Z,84.43
2018-09-06T05:23:49.937Z,84.47
2018-09-06T05:28:44.386Z,82.58
2018-09-06T05:33:38.923Z,80.65
2018-09-06T05:38:33.428Z,78.74
2018-09-06T05:43:27.949Z,76.50
2018-09-06T05:48:22.390Z,71.96
2018-09-06T06:09:32.250Z,65.07
2018-09-06T06:14:27.498Z,62.23
2018-09-06T06:19:21.956Z,61.93
2018-09-06T06:24:16.463Z,61.67
2018-09-06T06:29:10.964Z,62.42
2018-09-06T06:34:05.502Z,64.28
2018-09-06T06:39:00.025Z,63.50
2018-09-06T06:43:54.653Z,63.22
2018-09-06T07:05:03.140Z,64.69
2018-09-06T07:09:57.996Z,63.37
2018-09-06T07:14:53.155Z,63.73
2018-09-06T07:19:47.732Z,64.03
2018-09-06T07:24:42.232Z,65.38
2018-09-06T07:29:36.690Z,63.87
2018-09-06T07:34:31.144Z,64.14
2018-09-06T07:39:27.620Z,64.25
2018-09-06T08:00:40.541Z,60.55
2018-09-06T08:05:34.994Z,61.25
2018-09-06T08:10:29.564Z,60.73
2018-09-06T08:15:24.094Z,60.36
2018-09-06T08:20:18.688Z,60.57
2018-09-06T08:25:14.180Z,60.12
2018-09-06T08:30:08.852Z,58.38
2018-09-06T08:35:03.351Z,57.09
2018-09-06T08:56:14.335Z,58.87
2018-09-06T09:01:13.929Z,59.97
2018-09-06T09:06:08.496Z,58.57
2018-09-06T09:11:02.987Z,56.62
2018-09-06T09:15:57.479Z,56.18
2018-09-06T09:20:53.129Z,53.79
2018-09-06T09:25:47.593Z,54.00
2018-09-06T09:30:42.047Z,53.24
2018-09-06T09:51:51.036Z,53.42
2018-09-06T09:56:45.524Z,55.31
2018-09-06T10:01:43.049Z,54.48
2018-09-06T10:06:43.300Z,52.00
2018-09-06T10:11:37.965Z,52.87
2018-09-06T10:16:41.998Z,52.18
2018-09-06T10:21:36.545Z,54.08
2018-09-06T10:26:31.221Z,52.28
2018-09-06T10:47:41.340Z,51.64
2018-09-06T10:52:36.977Z,49.85
2018-09-06T10:57:32.304Z,49.62
2018-09-06T11:02:29.424Z,49.45
2018-09-06T11:07:27.707Z,49.26
2018-09-06T11:17:29.692Z,46.80
2018-09-06T11:22:25.913Z,47.91
2018-09-06T11:27:20.803Z,48.17
2018-09-06T11:32:21.340Z,48.29
2018-09-06T11:53:32.692Z,45.85
2018-09-06T11:58:30.178Z,44.98
2018-09-06T12:03:26.177Z,39.69
2018-09-06T12:08:20.981Z,43.62
2018-09-06T12:13:15.656Z,43.92
2018-09-06T12:18:10.354Z,46.82
2018-09-06T12:23:05.787Z,46.13
2018-09-06T12:28:00.357Z,45.24
2018-09-06T12:49:09.488Z,42.18
2018-09-06T12:54:05.313Z,41.39
2018-09-06T12:58:59.790Z,45.68
2018-09-06T13:03:54.319Z,46.27
2018-09-06T13:08:49.014Z,45.79
2018-09-06T13:13:43.774Z,46.56
2018-09-06T13:18:38.890Z,46.71
2018-09-06T13:23:33.373Z,47.71
2018-09-06T13:44:42.471Z,48.17
2018-09-06T13:49:37.335Z,47.57
2018-09-06T13:54:33.899Z,47.82
2018-09-06T13:59:28.583Z,44.85
2018-09-06T14:04:23.455Z,45.12
2018-09-06T14:09:18.089Z,43.52
2018-09-06T14:14:13.155Z,44.21
2018-09-06T14:19:09.249Z,43.24
2018-09-06T14:40:20.456Z,42.67
2018-09-06T14:45:15.688Z,42.42
2018-09-06T14:50:10.207Z,42.55
2018-09-06T14:55:04.918Z,43.02
2018-09-06T14:59:59.403Z,43.40
2018-09-06T15:04:53.944Z,42.60
2018-09-06T15:09:48.551Z,42.18
2018-09-06T15:14:43.114Z,43.11
2018-09-06T15:35:52.183Z,46.15
2018-09-06T15:40:46.610Z,47.21
2018-09-06T15:45:42.157Z,46.43
2018-09-06T15:50:36.708Z,47.53
2018-09-06T15:55:31.144Z,47.54
2018-09-06T16:00:25.706Z,47.58
2018-09-06T16:05:20.145Z,46.17
2018-09-06T16:10:14.595Z,46.56
2018-09-06T16:31:23.663Z,46.35
2018-09-06T16:36:18.133Z,45.96
2018-09-06T16:41:12.591Z,46.58
2018-09-06T16:46:07.077Z,46.78
2018-09-06T16:51:01.595Z,47.28
2018-09-06T16:55:56.084Z,45.71
2018-09-06T17:00:50.570Z,45.83
2018-09-06T17:05:45.039Z,45.55
2018-09-06T17:26:54.214Z,49.67
2018-09-06T17:31:48.710Z,50.83
2018-09-06T17:36:43.236Z,49.76
2018-09-06T17:41:37.688Z,49.63
2018-09-06T17:46:32.199Z,49.86
2018-09-06T17:51:26.668Z,50.83
2018-09-06T17:56:21.100Z,50.85
2018-09-06T18:01:25.919Z,50.88
2018-09-06T18:22:34.584Z,52.13
2018-09-06T18:27:29.064Z,52.95
2018-09-06T18:32:23.668Z,52.90
2018-09-06T18:37:18.156Z,52.89
2018-09-06T18:42:12.702Z,52.99
2018-09-06T18:47:07.131Z,53.57
2018-09-06T18:52:01.644Z,54.24
2018-09-06T18:56:56.139Z,53.65
2018-09-06T19:01:50.576Z,54.37
2018-09-06T19:22:59.828Z,55.70
2018-09-06T19:27:54.757Z,55.95
2018-09-06T19:32:49.260Z,55.72
2018-09-06T19:37:43.900Z,56.61
2018-09-06T19:42:38.364Z,56.45
2018-09-06T19:47:32.836Z,57.38
2018-09-06T19:52:27.319Z,57.01
2018-09-06T19:57:21.813Z,57.70
2018-09-06T20:18:30.860Z,59.53
2018-09-06T20:23:25.345Z,59.06
2018-09-06T20:28:19.908Z,59.90
2018-09-06T20:33:14.268Z,59.73
2018-09-06T20:38:08.752Z,60.24
2018-09-06T20:43:03.236Z,59.77
2018-09-06T20:47:57.752Z,60.60
2018-09-06T20:52:52.192Z,63.06
2018-09-06T21:14:01.073Z,65.28
2018-09-06T21:18:55.523Z,65.42
2018-09-06T21:23:50.001Z,64.50
2018-09-06T21:28:44.434Z,64.07
2018-09-06T21:33:38.880Z,62.97
2018-09-06T21:38:33.278Z,62.95
2018-09-06T21:43:27.753Z,62.54
2018-09-06T21:48:22.172Z,61.48
2018-09-06T22:09:31.132Z,61.73
2018-09-06T22:14:25.687Z,61.97
2018-09-06T22:19:20.155Z,62.80
2018-09-06T22:24:14.618Z,63.46
2018-09-06T22:29:09.036Z,64.72
2018-09-06T22:34:03.502Z,65.53
2018-09-06T22:38:57.984Z,66.08
2018-09-06T22:43:52.469Z,66.08
2018-09-06T23:05:01.431Z,68.18
2018-09-06T23:09:55.968Z,68.27
2018-09-06T23:14:50.408Z,69.50
2018-09-06T23:19:44.852Z,69.82
2018-09-06T23:24:39.267Z,69.73
2018-09-06T23:29:33.660Z,68.78
2018-09-06T23:34:32.266Z,69.11
2018-09-06T23:39:26.714Z,70.37
